createdAt,value
2019-03-28T00:00:09.634Z,72.20
2019-03-28T00:02:38.827Z,72.10
2019-03-28T00:05:08.357Z,72.70
2019-03-28T00:07:37.257Z,72.30
2019-03-28T00:10:06.472Z,72.50
2019-03-28T00:12:35.734Z,72.20
2019-03-28T00:15:06.928Z,72.50
2019-03-28T00:17:35.910Z,71.20
2019-03-28T00:20:05.891Z,72.40
2019-03-28T00:22:36.602Z,71.70
2019-03-28T00:25:16.879Z,71.90
2019-03-28T00:27:47.553Z,72.50
2019-03-28T00:30:18.155Z,72.40
2019-03-28T00:32:47.350Z,72.10
2019-03-28T00:35:16.820Z,71.50
2019-03-28T00:37:45.908Z,72.30
2019-03-28T00:40:15.559Z,72.50
2019-03-28T00:42:44.751Z,72.00
2019-03-28T00:45:13.839Z,72.30
2019-03-28T00:47:42.754Z,72.70
2019-03-28T00:50:11.950Z,72.30
2019-03-28T00:52:41.207Z,73.20
2019-03-28T00:55:10.347Z,72.80
2019-03-28T00:57:39.234Z,73.00
2019-03-28T01:00:08.815Z,73.10
2019-03-28T01:02:37.902Z,71.90
2019-03-28T01:05:07.419Z,72.50
2019-03-28T01:07:37.397Z,72.00
2019-03-28T01:10:07.627Z,72.40
2019-03-28T01:12:36.581Z,71.80
2019-03-28T01:15:08.051Z,71.80
2019-03-28T01:17:36.982Z,71.90
2019-03-28T01:20:10.175Z,72.20
2019-03-28T01:22:39.300Z,73.10
2019-03-28T01:25:08.268Z,72.60
2019-03-28T01:27:37.413Z,73.10
2019-03-28T01:30:08.372Z,73.10
2019-03-28T01:32:37.480Z,73.30
2019-03-28T01:35:06.483Z,73.60
2019-03-28T01:37:35.376Z,73.60
2019-03-28T01:40:05.642Z,73.70
2019-03-28T01:42:34.793Z,73.50
2019-03-28T01:45:04.625Z,73.80
2019-03-28T01:47:36.188Z,74.00
2019-03-28T01:50:06.902Z,74.30
2019-03-28T01:52:36.032Z,74.40
2019-03-28T01:55:07.065Z,74.30
2019-03-28T01:57:35.945Z,73.90
2019-03-28T02:00:07.482Z,74.20
2019-03-28T02:02:37.536Z,74.50
2019-03-28T02:05:08.524Z,74.40
2019-03-28T02:07:37.521Z,74.00
2019-03-28T02:10:07.062Z,74.40
2019-03-28T02:12:36.161Z,75.30
2019-03-28T02:15:07.266Z,72.70
2019-03-28T02:17:36.852Z,73.70
2019-03-28T02:20:09.219Z,73.40
2019-03-28T02:22:41.050Z,74.20
2019-03-28T02:25:10.072Z,74.20
2019-03-28T02:27:39.003Z,73.10
2019-03-28T02:30:09.560Z,73.70
2019-03-28T02:32:38.711Z,74.00
2019-03-28T02:35:08.316Z,74.00
2019-03-28T02:37:37.214Z,74.50
2019-03-28T02:40:07.637Z,74.60
2019-03-28T02:42:36.567Z,73.30
2019-03-28T02:45:07.369Z,74.40
2019-03-28T02:47:36.243Z,74.60
2019-03-28T02:50:06.808Z,75.00
2019-03-28T02:52:35.970Z,75.10
2019-03-28T02:55:07.259Z,75.30
2019-03-28T02:57:41.736Z,75.10
2019-03-28T03:00:08.338Z,74.70
2019-03-28T03:02:37.468Z,74.20
2019-03-28T03:05:08.721Z,74.50
2019-03-28T03:07:37.617Z,75.00
2019-03-28T03:10:08.084Z,75.20
2019-03-28T03:12:37.507Z,75.10
2019-03-28T03:15:07.585Z,76.10
2019-03-28T03:17:36.506Z,74.80
2019-03-28T03:20:08.430Z,74.60
2019-03-28T03:22:37.464Z,74.90
2019-03-28T03:25:09.761Z,75.30
2019-03-28T03:27:38.925Z,75.00
2019-03-28T03:30:09.923Z,75.80
2019-03-28T03:32:38.898Z,76.10
2019-03-28T03:35:08.192Z,76.20
2019-03-28T03:37:37.117Z,76.10
2019-03-28T03:40:08.382Z,75.90
2019-03-28T03:42:37.349Z,75.80
2019-03-28T03:45:09.037Z,75.70
2019-03-28T03:47:38.536Z,75.20
2019-03-28T03:50:07.677Z,75.20
2019-03-28T03:52:36.677Z,75.20
2019-03-28T03:55:07.116Z,75.20
2019-03-28T03:57:35.990Z,74.40
2019-03-28T04:00:07.324Z,74.80
2019-03-28T04:02:36.671Z,74.30
2019-03-28T04:05:07.043Z,74.10
2019-03-28T04:07:35.912Z,74.00
2019-03-28T04:10:06.436Z,74.50
2019-03-28T04:12:36.423Z,74.30
2019-03-28T04:15:06.395Z,74.40
2019-03-28T04:17:35.315Z,74.70
2019-03-28T04:20:09.438Z,74.90
2019-03-28T04:22:38.513Z,75.10
2019-03-28T04:25:07.546Z,75.40
2019-03-28T04:27:37.888Z,75.40
2019-03-28T04:30:09.046Z,75.30
2019-03-28T04:32:38.135Z,75.50
2019-03-28T04:35:07.181Z,75.50
2019-03-28T04:37:36.085Z,75.90
2019-03-28T04:40:07.163Z,75.60
2019-03-28T04:42:36.318Z,76.30
2019-03-28T04:45:06.380Z,75.80
2019-03-28T04:47:36.265Z,76.10
2019-03-28T04:50:06.406Z,75.10
2019-03-28T04:52:35.296Z,75.10
2019-03-28T04:55:05.114Z,75.40
2019-03-28T04:57:34.101Z,75.70
2019-03-28T05:00:03.086Z,75.20
2019-03-28T05:02:32.197Z,75.00
2019-03-28T05:05:01.091Z,75.10
2019-03-28T05:07:29.983Z,75.40
2019-03-28T05:09:58.875Z,75.30
2019-03-28T05:12:27.825Z,75.20
2019-03-28T05:14:56.752Z,74.80
2019-03-28T05:17:25.782Z,74.90
2019-03-28T05:19:54.650Z,75.10
2019-03-28T05:22:23.896Z,74.80
2019-03-28T05:24:52.832Z,74.90
2019-03-28T05:27:21.724Z,75.30
2019-03-28T05:29:50.612Z,75.50
2019-03-28T05:32:20.574Z,75.30
2019-03-28T05:34:51.013Z,75.50
2019-03-28T05:37:19.920Z,75.40
2019-03-28T05:39:50.333Z,75.60
2019-03-28T05:42:19.484Z,75.40
2019-03-28T05:44:48.326Z,75.60
2019-03-28T05:47:17.240Z,76.00
2019-03-28T05:49:47.845Z,75.50
2019-03-28T05:52:16.995Z,75.90
2019-03-28T05:54:48.354Z,76.30
2019-03-28T05:57:17.227Z,75.60
2019-03-28T05:59:46.368Z,76.00
2019-03-28T06:02:18.523Z,75.60
2019-03-28T06:04:47.398Z,75.70
2019-03-28T06:07:16.269Z,75.80
2019-03-28T06:09:45.199Z,75.80
2019-03-28T06:12:14.170Z,75.70
2019-03-28T06:14:43.065Z,75.60
2019-03-28T06:17:11.984Z,75.60
2019-03-28T06:19:40.858Z,75.30
2019-03-28T06:22:09.774Z,75.40
2019-03-28T06:24:38.828Z,75.10
2019-03-28T06:27:07.764Z,75.20
2019-03-28T06:29:36.670Z,75.10
2019-03-28T06:32:05.808Z,75.10
2019-03-28T06:34:34.688Z,75.10
2019-03-28T06:37:03.598Z,75.00
2019-03-28T06:39:45.484Z,75.10
2019-03-28T06:42:14.662Z,75.10
2019-03-28T06:44:43.534Z,74.90
2019-03-28T06:47:12.829Z,74.90
2019-03-28T06:49:41.724Z,74.80
2019-03-28T06:52:10.610Z,74.80
2019-03-28T06:54:39.533Z,74.70
2019-03-28T06:57:08.425Z,74.70
2019-03-28T06:59:38.001Z,74.40
2019-03-28T07:02:07.557Z,74.50
2019-03-28T07:04:36.438Z,74.20
2019-03-28T07:07:05.415Z,74.20
2019-03-28T07:09:34.351Z,74.30
2019-03-28T07:12:03.524Z,74.20
2019-03-28T07:14:32.407Z,74.20
2019-03-28T07:17:01.353Z,73.80
2019-03-28T07:19:30.248Z,73.50
2019-03-28T07:21:59.141Z,73.20
2019-03-28T07:24:28.398Z,73.00
2019-03-28T07:26:57.373Z,73.10
2019-03-28T07:29:26.322Z,72.50
2019-03-28T07:31:55.428Z,72.50
2019-03-28T07:34:25.133Z,72.20
2019-03-28T07:36:54.077Z,71.50
2019-03-28T07:39:35.650Z,72.10
2019-03-28T07:42:04.548Z,71.70
2019-03-28T07:44:33.479Z,71.20
2019-03-28T07:47:02.389Z,71.40
2019-03-28T07:49:31.300Z,70.80
2019-03-28T07:52:00.318Z,69.90
2019-03-28T07:54:29.214Z,70.70
2019-03-28T07:56:58.104Z,69.90
2019-03-28T07:59:30.012Z,70.50
2019-03-28T08:02:00.180Z,70.20
2019-03-28T08:04:29.068Z,70.30
2019-03-28T08:06:58.109Z,69.60
2019-03-28T08:09:36.514Z,69.70
2019-03-28T08:11:57.644Z,69.60
2019-03-28T08:14:26.588Z,69.30
2019-03-28T08:16:55.488Z,69.50
2019-03-28T08:19:25.250Z,69.00
2019-03-28T08:21:54.172Z,69.30
2019-03-28T08:24:23.081Z,69.00
2019-03-28T08:26:51.963Z,69.20
2019-03-28T08:29:21.018Z,68.80
2019-03-28T08:31:53.125Z,68.30
2019-03-28T08:34:22.004Z,68.00
2019-03-28T08:36:52.604Z,67.70
2019-03-28T08:39:24.092Z,68.00
2019-03-28T08:41:52.985Z,68.00
2019-03-28T08:44:22.835Z,67.60
2019-03-28T08:46:52.053Z,66.30
2019-03-28T08:49:20.928Z,67.40
2019-03-28T08:51:49.834Z,67.60
2019-03-28T08:54:18.781Z,66.50
2019-03-28T08:56:48.159Z,67.60
2019-03-28T08:59:17.009Z,66.20
2019-03-28T09:01:45.951Z,66.10
2019-03-28T09:04:14.884Z,65.90
2019-03-28T09:06:43.766Z,65.70
2019-03-28T09:09:12.694Z,65.40
2019-03-28T09:11:41.613Z,65.50
2019-03-28T09:14:10.499Z,65.30
2019-03-28T09:16:39.894Z,64.90
2019-03-28T09:19:08.780Z,64.90
2019-03-28T09:21:39.065Z,64.60
2019-03-28T09:24:07.993Z,64.80
2019-03-28T09:26:36.883Z,64.50
2019-03-28T09:29:05.854Z,64.00
2019-03-28T09:31:34.786Z,64.00
2019-03-28T09:34:03.677Z,63.80
2019-03-28T09:36:32.568Z,63.80
2019-03-28T09:39:01.531Z,64.10
2019-03-28T09:41:30.399Z,63.60
2019-03-28T09:43:59.318Z,63.50
2019-03-28T09:46:29.468Z,63.10
2019-03-28T09:48:58.532Z,63.00
2019-03-28T09:51:27.857Z,63.30
2019-03-28T09:53:57.059Z,63.10
2019-03-28T09:56:26.507Z,63.40
2019-03-28T09:58:55.379Z,63.40
2019-03-28T10:01:24.302Z,63.10
2019-03-28T10:03:53.239Z,63.40
2019-03-28T10:06:25.407Z,63.20
2019-03-28T10:08:54.272Z,62.80
2019-03-28T10:11:25.338Z,63.00
2019-03-28T10:13:54.226Z,63.10
2019-03-28T10:16:23.121Z,62.60
2019-03-28T10:18:52.043Z,62.70
2019-03-28T10:21:20.928Z,62.00
2019-03-28T10:23:49.828Z,61.90
2019-03-28T10:26:19.094Z,61.50
2019-03-28T10:28:48.074Z,61.40
2019-03-28T10:31:17.130Z,60.10
2019-03-28T10:33:46.527Z,60.30
2019-03-28T10:36:15.476Z,60.10
2019-03-28T10:38:44.367Z,59.60
2019-03-28T10:41:13.289Z,59.60
2019-03-28T10:43:42.240Z,58.90
2019-03-28T10:46:11.451Z,59.40
2019-03-28T10:48:40.375Z,59.90
2019-03-28T10:51:12.568Z,59.40
2019-03-28T10:53:41.455Z,58.80
2019-03-28T10:56:20.984Z,58.90
2019-03-28T10:58:41.216Z,58.80
2019-03-28T11:01:10.129Z,58.70
2019-03-28T11:03:39.084Z,59.10
2019-03-28T11:06:07.954Z,58.60
2019-03-28T11:08:36.857Z,59.00
2019-03-28T11:11:05.890Z,58.80
2019-03-28T11:13:34.762Z,58.20
2019-03-28T11:16:03.685Z,58.10
2019-03-28T11:18:32.594Z,57.70
2019-03-28T11:21:01.463Z,57.40
2019-03-28T11:23:30.355Z,57.70
2019-03-28T11:25:59.317Z,57.80
2019-03-28T11:28:28.806Z,57.90
2019-03-28T11:30:57.701Z,57.10
2019-03-28T11:33:26.611Z,57.50
2019-03-28T11:35:55.521Z,57.80
2019-03-28T11:38:24.416Z,56.90
2019-03-28T11:40:53.304Z,57.60
2019-03-28T11:43:22.257Z,57.70
2019-03-28T11:45:52.589Z,57.30
2019-03-28T11:48:21.497Z,56.60
2019-03-28T11:50:50.418Z,56.40
2019-03-28T11:53:19.321Z,56.90
2019-03-28T11:55:48.957Z,57.10
2019-03-28T11:58:18.316Z,56.60
2019-03-28T12:00:47.946Z,56.00
2019-03-28T12:03:16.828Z,56.20
2019-03-28T12:05:45.765Z,56.50
2019-03-28T12:08:14.689Z,56.40
2019-03-28T12:10:43.586Z,56.50
2019-03-28T12:13:12.527Z,56.10
2019-03-28T12:15:41.432Z,56.10
2019-03-28T12:18:10.328Z,56.60
2019-03-28T12:20:39.269Z,56.20
2019-03-28T12:23:08.145Z,56.00
2019-03-28T12:25:37.091Z,56.40
2019-03-28T12:28:05.968Z,55.90
2019-03-28T12:30:34.856Z,55.80
2019-03-28T12:33:03.801Z,55.80
2019-03-28T12:35:32.669Z,55.50
2019-03-28T12:38:02.597Z,55.40
2019-03-28T12:40:33.854Z,55.30
2019-03-28T12:43:02.842Z,55.40
2019-03-28T12:45:31.802Z,55.30
2019-03-28T12:48:00.879Z,55.40
2019-03-28T12:50:29.789Z,55.00
2019-03-28T12:52:58.696Z,55.20
2019-03-28T12:55:27.654Z,55.60
2019-03-28T12:58:01.180Z,55.10
2019-03-28T13:00:37.189Z,54.80
2019-03-28T13:03:06.274Z,54.80
2019-03-28T13:05:35.582Z,54.80
2019-03-28T13:08:04.779Z,54.70
2019-03-28T13:10:33.703Z,55.00
2019-03-28T13:13:03.146Z,54.70
2019-03-28T13:15:34.367Z,54.60
2019-03-28T13:18:03.360Z,54.60
2019-03-28T13:20:32.259Z,55.00
2019-03-28T13:23:01.208Z,55.00
2019-03-28T13:25:31.759Z,55.10
2019-03-28T13:28:00.737Z,54.50
2019-03-28T13:30:30.163Z,54.00
2019-03-28T13:32:59.241Z,54.30
2019-03-28T13:35:28.098Z,54.00
2019-03-28T13:37:57.047Z,53.70
2019-03-28T13:40:26.277Z,54.20
2019-03-28T13:42:55.661Z,53.90
2019-03-28T13:45:24.657Z,54.40
2019-03-28T13:47:54.419Z,53.30
2019-03-28T13:50:23.769Z,53.30
2019-03-28T13:52:52.696Z,53.00
2019-03-28T13:55:21.720Z,53.50
2019-03-28T13:57:52.218Z,53.50
2019-03-28T14:00:24.863Z,53.20
2019-03-28T14:02:57.268Z,53.40
2019-03-28T14:05:24.680Z,53.00
2019-03-28T14:07:53.556Z,52.60
2019-03-28T14:10:22.436Z,52.30
2019-03-28T14:12:51.420Z,51.50
2019-03-28T14:18:16.535Z,50.60
2019-03-28T14:20:45.384Z,50.40
2019-03-28T14:23:14.264Z,50.90
2019-03-28T14:25:43.209Z,50.50
2019-03-28T14:28:12.095Z,50.20
2019-03-28T14:30:41.403Z,50.60
2019-03-28T14:33:12.165Z,50.50
2019-03-28T14:35:41.479Z,50.30
2019-03-28T14:38:10.416Z,50.70
2019-03-28T14:40:39.308Z,49.90
2019-03-28T14:43:10.684Z,50.20
2019-03-28T14:45:39.124Z,50.50
2019-03-28T14:48:07.992Z,49.80
2019-03-28T14:50:39.262Z,50.50
2019-03-28T14:53:11.335Z,50.30
2019-03-28T14:55:40.378Z,50.10
2019-03-28T14:58:09.255Z,50.40
2019-03-28T15:00:47.792Z,50.70
2019-03-28T15:03:25.638Z,50.50
2019-03-28T15:05:47.518Z,50.50
2019-03-28T15:08:16.466Z,49.70
2019-03-28T15:10:45.348Z,49.50
2019-03-28T15:13:14.244Z,50.30
2019-03-28T15:15:43.173Z,50.80
2019-03-28T15:18:12.080Z,50.90
2019-03-28T15:20:41.279Z,51.30
2019-03-28T15:23:10.704Z,51.50
2019-03-28T15:25:39.673Z,51.10
2019-03-28T15:28:08.560Z,50.90
2019-03-28T15:30:37.516Z,50.90
2019-03-28T15:33:06.391Z,50.80
2019-03-28T15:35:35.272Z,51.10
2019-03-28T15:38:04.216Z,51.20
2019-03-28T15:40:33.155Z,51.50
2019-03-28T15:43:02.039Z,51.60
2019-03-28T15:45:30.992Z,52.10
2019-03-28T15:47:59.846Z,51.90
2019-03-28T15:50:28.754Z,51.90
2019-03-28T15:52:57.783Z,51.60
2019-03-28T15:55:26.663Z,50.80
2019-03-28T15:57:55.612Z,50.50
2019-03-28T16:00:30.314Z,49.70
2019-03-28T16:02:58.376Z,49.70
2019-03-28T16:05:27.305Z,48.30
2019-03-28T16:07:59.127Z,48.40
2019-03-28T16:10:26.706Z,48.20
2019-03-28T16:12:55.632Z,48.20
2019-03-28T16:15:25.144Z,47.50
2019-03-28T16:17:54.028Z,48.10
2019-03-28T16:20:23.693Z,47.80
2019-03-28T16:22:52.836Z,48.60
2019-03-28T16:25:21.708Z,49.40
2019-03-28T16:27:50.635Z,49.40
2019-03-28T16:30:22.461Z,50.10
2019-03-28T16:32:51.362Z,49.80
2019-03-28T16:35:21.357Z,50.30
2019-03-28T16:37:51.041Z,50.40
2019-03-28T16:40:20.234Z,51.00
2019-03-28T16:42:49.208Z,51.20
2019-03-28T16:45:18.087Z,51.70
2019-03-28T16:47:47.004Z,52.20
2019-03-28T16:50:16.050Z,52.60
2019-03-28T16:52:48.045Z,52.90
2019-03-28T16:55:25.783Z,52.70
2019-03-28T16:57:46.066Z,52.80
2019-03-28T17:00:16.628Z,52.10
2019-03-28T17:02:45.522Z,52.10
2019-03-28T17:05:15.577Z,52.20
2019-03-28T17:07:45.567Z,51.30
2019-03-28T17:10:17.379Z,51.30
2019-03-28T17:12:46.257Z,50.70
2019-03-28T17:15:15.175Z,50.30
2019-03-28T17:17:44.096Z,50.00
2019-03-28T17:20:13.265Z,50.10
2019-03-28T17:22:42.210Z,49.50
2019-03-28T17:25:11.114Z,50.00
2019-03-28T17:27:40.167Z,50.10
2019-03-28T17:30:09.306Z,50.10
2019-03-28T17:32:38.829Z,50.30
2019-03-28T17:35:08.024Z,50.30
2019-03-28T17:37:37.266Z,50.50
2019-03-28T17:40:07.777Z,50.70
2019-03-28T17:42:36.666Z,50.90
2019-03-28T17:45:08.025Z,51.50
2019-03-28T17:47:37.419Z,52.40
2019-03-28T17:50:07.570Z,53.30
2019-03-28T17:52:36.565Z,53.60
2019-03-28T17:55:06.750Z,53.80
2019-03-28T17:57:35.862Z,54.00
2019-03-28T18:00:09.483Z,53.90
2019-03-28T18:02:38.352Z,54.40
2019-03-28T18:05:09.943Z,54.70
2019-03-28T18:07:39.150Z,54.70
2019-03-28T18:10:08.522Z,55.00
2019-03-28T18:12:37.614Z,55.50
2019-03-28T18:15:07.006Z,54.90
2019-03-28T18:17:38.718Z,55.20
2019-03-28T18:20:10.334Z,55.30
2019-03-28T18:22:39.664Z,55.50
2019-03-28T18:25:12.414Z,55.50
2019-03-28T18:27:43.219Z,55.60
2019-03-28T18:30:14.351Z,55.10
2019-03-28T18:32:45.498Z,55.30
2019-03-28T18:35:14.833Z,55.30
2019-03-28T18:37:46.899Z,55.30
2019-03-28T18:40:16.076Z,55.10
2019-03-28T18:42:45.077Z,55.10
2019-03-28T18:45:14.786Z,55.00
2019-03-28T18:47:44.632Z,54.80
2019-03-28T18:50:16.957Z,54.90
2019-03-28T18:52:51.443Z,54.80
2019-03-28T18:58:43.935Z,54.10
2019-03-28T19:05:18.657Z,53.70
2019-03-28T19:07:38.512Z,53.50
2019-03-28T19:10:44.786Z,53.80
2019-03-28T19:13:25.513Z,54.00
2019-03-28T19:15:37.414Z,54.10
2019-03-28T19:18:19.566Z,54.30
2019-03-28T19:20:46.658Z,53.90
2019-03-28T19:23:15.755Z,54.00
2019-03-28T19:25:46.864Z,53.80
2019-03-28T19:28:27.934Z,53.40
2019-03-28T19:30:45.918Z,53.30
2019-03-28T19:33:15.194Z,53.40
2019-03-28T19:35:48.156Z,53.60
2019-03-28T19:38:17.441Z,53.60
2019-03-28T19:40:46.458Z,53.70
2019-03-28T19:43:20.979Z,53.80
2019-03-28T19:45:45.891Z,53.90
2019-03-28T19:48:15.060Z,54.10
2019-03-28T19:50:43.951Z,54.20
2019-03-28T19:53:12.836Z,54.50
2019-03-28T19:55:41.740Z,54.50
2019-03-28T19:58:13.359Z,54.60
2019-03-28T20:00:41.267Z,54.70
2019-03-28T20:03:10.405Z,54.90
2019-03-28T20:05:47.433Z,55.10
2019-03-28T20:08:15.865Z,55.40
2019-03-28T20:10:41.237Z,55.70
2019-03-28T20:13:10.119Z,56.30
2019-03-28T20:15:39.002Z,56.40
2019-03-28T20:18:08.183Z,56.70
2019-03-28T20:20:37.071Z,57.10
2019-03-28T20:23:06.100Z,57.10
2019-03-28T20:25:35.045Z,57.20
2019-03-28T20:28:04.021Z,58.20
2019-03-28T20:30:33.117Z,58.40
2019-03-28T20:33:02.057Z,58.20
2019-03-28T20:35:31.074Z,58.00
2019-03-28T20:38:00.056Z,58.00
2019-03-28T20:40:30.701Z,58.10
2019-03-28T20:43:02.863Z,58.30
2019-03-28T20:45:34.040Z,58.80
2019-03-28T20:48:03.040Z,58.80
2019-03-28T20:50:31.977Z,58.70
2019-03-28T20:53:10.140Z,59.10
2019-03-28T20:55:39.149Z,59.30
2019-03-28T20:58:08.809Z,60.20
2019-03-28T21:00:42.306Z,59.90
2019-03-28T21:03:11.643Z,59.70
2019-03-28T21:05:41.039Z,59.90
2019-03-28T21:08:14.484Z,60.10
2019-03-28T21:10:43.383Z,60.30
2019-03-28T21:13:12.477Z,59.80
2019-03-28T21:15:41.436Z,59.90
2019-03-28T21:18:10.454Z,59.90
2019-03-28T21:20:39.342Z,60.10
2019-03-28T21:23:08.347Z,59.90
2019-03-28T21:25:37.265Z,60.10
2019-03-28T21:28:06.335Z,59.60
2019-03-28T21:30:46.581Z,59.80
2019-03-28T21:33:05.800Z,59.70
2019-03-28T21:35:34.688Z,60.50
2019-03-28T21:38:05.124Z,60.50
2019-03-28T21:40:35.624Z,60.70
2019-03-28T21:43:04.893Z,60.60
2019-03-28T21:45:34.708Z,60.70
2019-03-28T21:48:03.885Z,60.20
2019-03-28T21:50:32.864Z,60.50
2019-03-28T21:53:01.868Z,60.70
2019-03-28T21:55:30.779Z,60.40
2019-03-28T21:57:59.834Z,60.40
2019-03-28T22:00:28.782Z,60.90
2019-03-28T22:02:57.736Z,60.90
2019-03-28T22:05:28.793Z,61.10
2019-03-28T22:07:57.287Z,61.20
2019-03-28T22:10:26.235Z,61.30
2019-03-28T22:12:55.854Z,61.00
2019-03-28T22:15:25.036Z,61.20
2019-03-28T22:17:54.010Z,61.10
2019-03-28T22:20:22.889Z,61.40
2019-03-28T22:22:51.781Z,60.90
2019-03-28T22:25:20.741Z,61.00
2019-03-28T22:27:50.792Z,60.90
2019-03-28T22:30:19.837Z,61.20
2019-03-28T22:32:50.002Z,61.20
2019-03-28T22:35:19.083Z,60.70
2019-03-28T22:37:48.118Z,60.30
2019-03-28T22:40:16.996Z,60.30
2019-03-28T22:42:45.869Z,60.70
2019-03-28T22:45:15.798Z,60.60
2019-03-28T22:47:44.896Z,60.50
2019-03-28T22:50:14.498Z,59.90
2019-03-28T22:52:43.674Z,60.40
2019-03-28T22:55:12.963Z,61.00
2019-03-28T22:57:41.888Z,60.80
2019-03-28T23:00:14.025Z,61.20
2019-03-28T23:02:42.886Z,61.50
2019-03-28T23:05:11.951Z,61.60
2019-03-28T23:07:41.001Z,61.40
2019-03-28T23:10:10.912Z,61.70
2019-03-28T23:12:39.796Z,60.10
2019-03-28T23:15:10.851Z,59.60
2019-03-28T23:17:40.290Z,59.40
2019-03-28T23:20:09.743Z,60.90
2019-03-28T23:22:38.669Z,59.80
2019-03-28T23:25:08.187Z,59.90
2019-03-28T23:27:37.175Z,60.20
2019-03-28T23:30:09.695Z,60.30
2019-03-28T23:32:38.944Z,60.10
2019-03-28T23:35:09.467Z,60.50
2019-03-28T23:37:38.431Z,60.20
2019-03-28T23:40:08.314Z,60.60
2019-03-28T23:42:37.205Z,60.50
2019-03-28T23:45:08.489Z,61.10
2019-03-28T23:47:37.769Z,60.80
2019-03-28T23:50:07.744Z,61.10
2019-03-28T23:52:36.650Z,60.80
2019-03-28T23:55:09.846Z,60.20
2019-03-28T23:57:38.922Z,60.40
